sensor_id;sensor_type;location;lat;lon;timestamp;P1;durP1;ratioP1;P2;durP2;ratioP2
30020;SDS011;16861;52.294;7.760;2024-03-25T00:04:12;13.80;;;3.25;;
30020;SDS011;16861;52.294;7.760;2024-03-25T00:10:25;14.88;;;3.83;;
30020;SDS011;16861;52.294;7.760;2024-03-25T00:16:38;16.95;;;3.53;;
30020;SDS011;16861;52.294;7.760;2024-03-25T00:26:31;11.05;;;3.03;;
30020;SDS011;16861;52.294;7.760;2024-03-25T00:32:44;15.90;;;3.22;;
30020;SDS011;16861;52.294;7.760;2024-03-25T07:14:13;20.35;;;4.65;;
30020;SDS011;16861;52.294;7.760;2024-03-25T07:16:54;15.68;;;4.53;;
30020;SDS011;16861;52.294;7.760;2024-03-25T07:19:20;11.10;;;3.60;;
30020;SDS011;16861;52.294;7.760;2024-03-25T07:21:45;17.83;;;4.38;;
30020;SDS011;16861;52.294;7.760;2024-03-25T07:27:19;12.18;;;3.20;;
30020;SDS011;16861;52.294;7.760;2024-03-25T07:29:45;15.85;;;3.42;;
30020;SDS011;16861;52.294;7.760;2024-03-25T07:34:57;17.42;;;3.58;;
30020;SDS011;16861;52.294;7.760;2024-03-25T07:37:23;16.85;;;3.30;;
30020;SDS011;16861;52.294;7.760;2024-03-25T07:42:31;8.15;;;2.50;;
30020;SDS011;16861;52.294;7.760;2024-03-25T07:45:10;19.63;;;4.30;;
30020;SDS011;16861;52.294;7.760;2024-03-25T07:47:35;13.45;;;3.42;;
30020;SDS011;16861;52.294;7.760;2024-03-25T07:50:01;15.05;;;3.53;;
30020;SDS011;16861;52.294;7.760;2024-03-25T07:55:06;19.00;;;4.50;;
30020;SDS011;16861;52.294;7.760;2024-03-25T07:57:32;15.45;;;4.28;;
30020;SDS011;16861;52.294;7.760;2024-03-25T08:02:51;14.88;;;3.00;;
30020;SDS011;16861;52.294;7.760;2024-03-25T08:05:25;10.88;;;3.08;;
30020;SDS011;16861;52.294;7.760;2024-03-25T08:07:50;19.65;;;4.63;;
30020;SDS011;16861;52.294;7.760;2024-03-25T08:10:16;15.70;;;3.58;;
30020;SDS011;16861;52.294;7.760;2024-03-25T08:12:43;13.52;;;3.10;;
30020;SDS011;16861;52.294;7.760;2024-03-25T08:15:08;14.38;;;3.47;;
30020;SDS011;16861;52.294;7.760;2024-03-25T08:17:35;15.05;;;3.60;;
30020;SDS011;16861;52.294;7.760;2024-03-25T08:20:01;16.48;;;4.20;;
30020;SDS011;16861;52.294;7.760;2024-03-25T08:22:28;17.58;;;3.40;;
30020;SDS011;16861;52.294;7.760;2024-03-25T08:27:42;18.02;;;3.78;;
30020;SDS011;16861;52.294;7.760;2024-03-25T08:30:10;16.17;;;3.17;;
30020;SDS011;16861;52.294;7.760;2024-03-25T08:32:36;13.73;;;3.40;;
30020;SDS011;16861;52.294;7.760;2024-03-25T08:35:02;14.02;;;3.78;;
30020;SDS011;16861;52.294;7.760;2024-03-25T08:37:27;19.00;;;3.95;;
30020;SDS011;16861;52.294;7.760;2024-03-25T08:39:53;16.88;;;3.70;;
30020;SDS011;16861;52.294;7.760;2024-03-25T08:42:26;14.20;;;3.53;;
30020;SDS011;16861;52.294;7.760;2024-03-25T08:44:51;12.85;;;3.42;;
30020;SDS011;16861;52.294;7.760;2024-03-25T08:47:17;11.68;;;3.00;;
30020;SDS011;16861;52.294;7.760;2024-03-25T08:49:55;11.40;;;3.30;;
30020;SDS011;16861;52.294;7.760;2024-03-25T08:52:20;13.02;;;3.30;;
30020;SDS011;16861;52.294;7.760;2024-03-25T08:54:46;14.70;;;3.70;;
30020;SDS011;16861;52.294;7.760;2024-03-25T08:57:13;13.15;;;2.92;;
30020;SDS011;16861;52.294;7.760;2024-03-25T08:59:38;10.55;;;2.80;;
30020;SDS011;16861;52.294;7.760;2024-03-25T09:02:05;13.60;;;3.03;;
30020;SDS011;16861;52.294;7.760;2024-03-25T09:04:32;15.73;;;3.08;;
30020;SDS011;16861;52.294;7.760;2024-03-25T09:06:57;12.77;;;3.00;;
30020;SDS011;16861;52.294;7.760;2024-03-25T09:12:26;12.60;;;3.08;;
30020;SDS011;16861;52.294;7.760;2024-03-25T09:14:51;12.40;;;3.10;;
30020;SDS011;16861;52.294;7.760;2024-03-25T09:20:26;12.90;;;3.63;;
30020;SDS011;16861;52.294;7.760;2024-03-25T09:22:52;7.57;;;3.15;;
30020;SDS011;16861;52.294;7.760;2024-03-25T09:25:18;13.82;;;3.45;;
30020;SDS011;16861;52.294;7.760;2024-03-25T09:30:33;15.65;;;4.20;;
30020;SDS011;16861;52.294;7.760;2024-03-25T09:32:59;16.77;;;4.10;;
30020;SDS011;16861;52.294;7.760;2024-03-25T09:38:27;12.60;;;3.70;;
30020;SDS011;16861;52.294;7.760;2024-03-25T09:40:53;11.98;;;3.42;;
30020;SDS011;16861;52.294;7.760;2024-03-25T09:46:13;9.00;;;2.80;;
30020;SDS011;16861;52.294;7.760;2024-03-25T09:51:30;14.68;;;3.67;;
30020;SDS011;16861;52.294;7.760;2024-03-25T09:53:59;9.48;;;2.42;;
30020;SDS011;16861;52.294;7.760;2024-03-25T09:56:24;12.02;;;3.10;;
30020;SDS011;16861;52.294;7.760;2024-03-25T10:01:27;11.57;;;2.92;;
30020;SDS011;16861;52.294;7.760;2024-03-25T10:06:41;10.88;;;2.58;;
30020;SDS011;16861;52.294;7.760;2024-03-25T10:11:39;9.90;;;2.13;;
30020;SDS011;16861;52.294;7.760;2024-03-25T10:16:35;10.57;;;2.83;;
30020;SDS011;16861;52.294;7.760;2024-03-25T10:19:01;13.95;;;3.20;;
30020;SDS011;16861;52.294;7.760;2024-03-25T10:24:44;7.75;;;2.13;;
30020;SDS011;16861;52.294;7.760;2024-03-25T10:27:20;9.45;;;2.65;;
30020;SDS011;16861;52.294;7.760;2024-03-25T10:29:54;11.93;;;2.13;;
30020;SDS011;16861;52.294;7.760;2024-03-25T10:32:21;13.65;;;2.83;;
30020;SDS011;16861;52.294;7.760;2024-03-25T10:34:59;11.52;;;2.63;;
30020;SDS011;16861;52.294;7.760;2024-03-25T10:37:33;11.10;;;2.80;;
30020;SDS011;16861;52.294;7.760;2024-03-25T10:40:00;13.15;;;2.30;;
30020;SDS011;16861;52.294;7.760;2024-03-25T10:42:26;12.38;;;3.42;;
30020;SDS011;16861;52.294;7.760;2024-03-25T10:45:05;11.52;;;2.75;;
30020;SDS011;16861;52.294;7.760;2024-03-25T10:47:34;9.88;;;2.38;;
30020;SDS011;16861;52.294;7.760;2024-03-25T10:52:35;10.05;;;2.03;;
30020;SDS011;16861;52.294;7.760;2024-03-25T10:55:03;8.30;;;2.60;;
30020;SDS011;16861;52.294;7.760;2024-03-25T10:57:29;11.52;;;2.15;;
30020;SDS011;16861;52.294;7.760;2024-03-25T10:59:57;11.60;;;2.30;;
30020;SDS011;16861;52.294;7.760;2024-03-25T11:02:23;11.70;;;2.65;;
30020;SDS011;16861;52.294;7.760;2024-03-25T11:04:51;9.00;;;2.63;;
30020;SDS011;16861;52.294;7.760;2024-03-25T11:07:30;12.90;;;2.72;;
30020;SDS011;16861;52.294;7.760;2024-03-25T11:10:08;14.07;;;2.97;;
30020;SDS011;16861;52.294;7.760;2024-03-25T11:12:36;10.32;;;2.70;;
30020;SDS011;16861;52.294;7.760;2024-03-25T11:15:06;11.10;;;2.88;;
30020;SDS011;16861;52.294;7.760;2024-03-25T11:17:48;7.00;;;2.35;;
30020;SDS011;16861;52.294;7.760;2024-03-25T11:20:17;11.05;;;2.45;;
30020;SDS011;16861;52.294;7.760;2024-03-25T11:22:50;9.40;;;2.95;;
30020;SDS011;16861;52.294;7.760;2024-03-25T11:25:16;14.63;;;3.10;;
30020;SDS011;16861;52.294;7.760;2024-03-25T11:27:43;16.75;;;3.17;;
30020;SDS011;16861;52.294;7.760;2024-03-25T11:33:06;8.40;;;2.58;;
30020;SDS011;16861;52.294;7.760;2024-03-25T11:35:39;8.77;;;2.45;;
30020;SDS011;16861;52.294;7.760;2024-03-25T11:40:31;9.52;;;2.20;;
30020;SDS011;16861;52.294;7.760;2024-03-25T11:42:58;9.15;;;2.15;;
30020;SDS011;16861;52.294;7.760;2024-03-25T11:45:24;8.48;;;2.53;;
30020;SDS011;16861;52.294;7.760;2024-03-25T11:50:57;6.07;;;1.75;;
30020;SDS011;16861;52.294;7.760;2024-03-25T11:53:23;9.48;;;2.60;;
30020;SDS011;16861;52.294;7.760;2024-03-25T11:55:54;9.05;;;2.35;;
30020;SDS011;16861;52.294;7.760;2024-03-25T11:58:20;8.02;;;2.03;;
30020;SDS011;16861;52.294;7.760;2024-03-25T12:03:25;10.82;;;2.45;;
30020;SDS011;16861;52.294;7.760;2024-03-25T12:08:32;11.52;;;2.83;;
30020;SDS011;16861;52.294;7.760;2024-03-25T12:13:55;14.75;;;2.67;;
30020;SDS011;16861;52.294;7.760;2024-03-25T12:16:21;8.23;;;2.00;;
30020;SDS011;16861;52.294;7.760;2024-03-25T12:21:34;7.50;;;2.05;;
30020;SDS011;16861;52.294;7.760;2024-03-25T12:24:00;7.10;;;1.80;;
30020;SDS011;16861;52.294;7.760;2024-03-25T12:29:25;10.52;;;2.30;;
30020;SDS011;16861;52.294;7.760;2024-03-25T12:32:05;10.48;;;2.40;;
30020;SDS011;16861;52.294;7.760;2024-03-25T12:34:34;6.38;;;2.03;;
30020;SDS011;16861;52.294;7.760;2024-03-25T12:37:03;13.13;;;2.60;;
30020;SDS011;16861;52.294;7.760;2024-03-25T16:45:11;6.70;;;1.58;;
30020;SDS011;16861;52.294;7.760;2024-03-25T16:47:37;7.30;;;1.60;;
30020;SDS011;16861;52.294;7.760;2024-03-25T16:50:05;7.63;;;1.90;;
30020;SDS011;16861;52.294;7.760;2024-03-25T16:52:35;9.38;;;2.08;;
30020;SDS011;16861;52.294;7.760;2024-03-25T16:55:05;5.60;;;1.48;;
30020;SDS011;16861;52.294;7.760;2024-03-25T16:57:41;6.15;;;1.45;;
30020;SDS011;16861;52.294;7.760;2024-03-25T17:00:09;7.38;;;2.28;;
30020;SDS011;16861;52.294;7.760;2024-03-25T17:02:37;7.03;;;1.70;;
